TimeCEST,TemperatureF,Dew PointF,Humidity,Sea Level PressureIn,VisibilityMPH,Wind Direction,Wind SpeedMPH,Gust SpeedMPH,PrecipitationIn,Events,Conditions,WindDirDegrees,DateUTC
12:00 AM,71.6,55.4,57,30.12,-9999.0,SSW,6.9,-,N/A,,Clear,200,2013-06-11 22:00:00
12:30 AM,69.8,53.6,56,30.12,-9999.0,SSW,3.5,-,N/A,,Clear,200,2013-06-11 22:30:00
1:00 AM,69.8,55.4,60,30.12,-9999.0,South,4.6,-,N/A,,Clear,180,2013-06-11 23:00:00
1:30 AM,66.2,57.2,73,30.12,-9999.0,SSE,2.3,-,N/A,,Clear,150,2013-06-11 23:30:00
2:00 AM,66.2,57.2,73,30.12,-9999.0,SSE,4.6,-,N/A,,Clear,160,2013-06-12 00:00:00
2:30 AM,66.2,57.2,73,30.12,-9999.0,South,3.5,-,N/A,,Clear,180,2013-06-12 00:30:00
4:30 AM,64.4,57.2,77,30.09,-9999.0,Variable,2.3,-,N/A,,Clear,0,2013-06-12 02:30:00
5:00 AM,64.4,57.2,77,30.09,-9999.0,Calm,Calm,-,N/A,,Clear,0,2013-06-12 03:00:00
5:30 AM,64.4,57.2,77,30.09,-9999.0,Calm,Calm,-,N/A,,Clear,0,2013-06-12 03:30:00
6:00 AM,62.6,57.2,82,30.09,-9999.0,Calm,Calm,-,N/A,,Clear,0,2013-06-12 04:00:00
6:30 AM,62.6,57.2,82,30.09,-9999.0,Calm,Calm,-,N/A,,Clear,0,2013-06-12 04:30:00
7:00 AM,64.4,57.2,77,30.12,-9999.0,Calm,Calm,-,N/A,,Clear,0,2013-06-12 05:00:00
7:30 AM,62.6,57.2,82,30.12,-9999.0,NNE,1.2,-,N/A,,Clear,30,2013-06-12 05:30:00
8:00 AM,64.4,59.0,83,30.12,-9999.0,Calm,Calm,-,N/A,,Clear,0,2013-06-12 06:00:00
8:30 AM,68.0,57.2,68,30.12,-9999.0,Calm,Calm,-,N/A,,Clear,0,2013-06-12 06:30:00
9:00 AM,71.6,57.2,60,30.12,-9999.0,Variable,1.2,-,N/A,,Clear,0,2013-06-12 07:00:00
9:30 AM,73.4,59.0,61,30.12,-9999.0,Variable,2.3,-,N/A,,Clear,0,2013-06-12 07:30:00
10:00 AM,77.0,59.0,54,30.12,-9999.0,Variable,2.3,-,N/A,,Clear,0,2013-06-12 08:00:00
10:30 AM,77.0,59.0,54,30.12,-9999.0,Variable,1.2,-,N/A,,Clear,0,2013-06-12 08:30:00
11:00 AM,80.6,59.0,48,30.12,-9999.0,Calm,Calm,-,N/A,,Clear,0,2013-06-12 09:00:00
11:30 AM,80.6,59.0,48,30.12,-9999.0,ENE,1.2,-,N/A,,Clear,60,2013-06-12 09:30:00
12:00 PM,82.4,59.0,45,30.12,-9999.0,WNW,1.2,-,N/A,,Clear,290,2013-06-12 10:00:00
12:30 PM,84.2,59.0,42,30.12,-9999.0,East,1.2,-,N/A,,Clear,80,2013-06-12 10:30:00
1:00 PM,86.0,57.2,37,30.12,-9999.0,Variable,2.3,-,N/A,,Clear,0,2013-06-12 11:00:00
1:30 PM,87.8,55.4,33,30.12,-9999.0,NE,1.2,-,N/A,,Clear,50,2013-06-12 11:30:00
2:00 PM,87.8,55.4,33,30.09,-9999.0,West,3.5,-,N/A,,Clear,280,2013-06-12 12:00:00
2:30 PM,89.6,55.4,31,30.09,-9999.0,WSW,3.5,-,N/A,,Clear,250,2013-06-12 12:30:00
3:00 PM,91.4,55.4,29,30.09,-9999.0,West,5.8,-,N/A,,Clear,270,2013-06-12 13:00:00
3:30 PM,91.4,53.6,28,30.09,-9999.0,NNW,4.6,-,N/A,,Clear,330,2013-06-12 13:30:00
4:00 PM,91.4,51.8,26,30.06,-9999.0,NW,8.1,-,N/A,,Clear,320,2013-06-12 14:00:00
4:30 PM,93.2,51.8,24,30.06,-9999.0,WNW,5.8,-,N/A,,Clear,290,2013-06-12 14:30:00
5:00 PM,93.2,51.8,24,30.06,-9999.0,West,6.9,-,N/A,,Clear,280,2013-06-12 15:00:00
5:30 PM,93.2,50.0,23,30.04,-9999.0,WNW,3.5,-,N/A,,Clear,290,2013-06-12 15:30:00
6:00 PM,93.2,53.6,26,30.04,-9999.0,WNW,6.9,-,N/A,,Clear,290,2013-06-12 16:00:00
6:30 PM,93.2,55.4,28,30.04,-9999.0,West,3.5,-,N/A,,Clear,260,2013-06-12 16:30:00
7:00 PM,93.2,53.6,26,30.04,-9999.0,SW,8.1,-,N/A,,Clear,220,2013-06-12 17:00:00
7:30 PM,91.4,60.8,36,30.04,-9999.0,SW,11.5,-,N/A,,Clear,220,2013-06-12 17:30:00
8:00 PM,87.8,64.4,46,30.04,-9999.0,SSW,12.7,-,N/A,,Clear,210,2013-06-12 18:00:00
8:30 PM,84.2,64.4,51,30.04,-9999.0,SW,12.7,-,N/A,,Clear,220,2013-06-12 18:30:00
9:00 PM,82.4,64.4,54,30.04,-9999.0,SSW,12.7,-,N/A,,Clear,210,2013-06-12 19:00:00
9:30 PM,80.6,64.4,58,30.04,-9999.0,SSW,10.4,-,N/A,,Clear,210,2013-06-12 19:30:00
10:00 PM,80.6,62.6,54,30.04,-9999.0,SSW,10.4,-,N/A,,Clear,210,2013-06-12 20:00:00
10:30 PM,77.0,62.6,61,30.06,-9999.0,SSW,8.1,-,N/A,,Clear,200,2013-06-12 20:30:00
11:00 PM,77.0,62.6,61,30.06,-9999.0,SSW,8.1,-,N/A,,Clear,200,2013-06-12 21:00:00
11:30 PM,75.2,60.8,61,30.06,-9999.0,South,8.1,-,N/A,,Clear,190,2013-06-12 21:30:00